Time;durP1;ratioP1;P1;durP2;ratioP2;P2;SDS_P1;SDS_P2;PMS_P1;PMS_P2;Temp;Humidity;BMP_temperature;BMP_pressure;BME280_temperature;BME280_humidity;BME280_pressure;Samples;Min_cycle;Max_cycle;Signal;HPM_P1;HPM_P2
2021/12/17 00:02:28;;;;;;;45.10;38.17;;;;;;;6.11;100.00;103957.25;5012139;28;20029;-60
2021/12/17 00:04:53;;;;;;;46.92;39.17;;;;;;;6.11;100.00;103957.25;5012295;28;20482;-59
2021/12/17 00:07:20;;;;;;;50.58;40.47;;;;;;;6.13;100.00;103954.84;5011995;28;20037;-60
2021/12/17 00:09:47;;;;;;;52.25;41.75;;;;;;;6.14;100.00;103954.06;5011658;28;20490;-61
2021/12/17 00:12:17;;;;;;;50.88;40.13;;;;;;;6.12;100.00;103956.50;5011866;28;20022;-61
2021/12/17 00:14:46;;;;;;;56.70;40.35;;;;;;;6.15;100.00;103955.91;5012134;28;20395;-59
2021/12/17 00:17:15;;;;;;;49.60;40.55;;;;;;;6.16;100.00;103957.72;5011871;28;20033;-60
2021/12/17 00:49:43;;;;;;;59.53;43.75;;;;;;;6.25;100.00;103947.41;5011834;28;20087;-58
2021/12/17 00:52:08;;;;;;;66.85;45.05;;;;;;;6.27;100.00;103947.56;5011625;28;20033;-60
2021/12/17 00:54:38;;;;;;;68.38;46.10;;;;;;;6.27;100.00;103939.84;5011426;28;20033;-59
2021/12/17 00:57:18;;;;;;;65.50;43.92;;;;;;;6.28;100.00;103939.09;5011274;28;20018;-59
2021/12/17 00:59:48;;;;;;;61.00;44.22;;;;;;;6.28;100.00;103945.13;5011374;28;20517;-61
2021/12/17 01:02:17;;;;;;;62.45;42.65;;;;;;;6.29;100.00;103938.31;5011520;28;20033;-61
2021/12/17 01:04:49;;;;;;;56.30;41.53;;;;;;;6.30;100.00;103945.28;5010968;28;20038;-61
2021/12/17 01:07:16;;;;;;;59.65;40.50;;;;;;;6.30;100.00;103940.13;5011409;28;20057;-60
2021/12/17 01:09:42;;;;;;;59.33;42.42;;;;;;;6.30;100.00;103934.97;5011290;28;20418;-59
2021/12/17 01:12:08;;;;;;;61.47;44.35;;;;;;;6.30;100.00;103934.97;5010918;28;20054;-59
2021/12/17 01:14:34;;;;;;;60.10;42.20;;;;;;;6.30;100.00;103928.16;5010647;28;20053;-61
2021/12/17 01:17:01;;;;;;;64.30;43.15;;;;;;;6.31;100.00;103929.09;5011015;28;20080;-60
2021/12/17 01:36:45;;;;;;;81.68;43.60;;;;;;;6.33;100.00;103930.16;5010055;28;19920;-60
2021/12/17 01:42:05;;;;;;;113.97;51.10;;;;;;;6.33;100.00;103918.16;5010346;28;20056;-60
2021/12/17 01:44:31;;;;;;;101.63;47.83;;;;;;;6.35;100.00;103926.06;5010437;28;20033;-61
2021/12/17 01:46:57;;;;;;;103.97;48.70;;;;;;;6.36;100.00;103925.31;5010884;28;20034;-60
2021/12/17 02:00:30;;;;;;;110.38;49.45;;;;;;;6.38;100.00;103922.88;5010443;28;20201;-61
2021/12/17 02:02:59;;;;;;;107.28;48.40;;;;;;;6.38;100.00;103918.63;5009990;28;20026;-61
2021/12/17 02:05:25;;;;;;;105.47;49.13;;;;;;;6.39;100.00;103915.28;5010111;28;20281;-61
2021/12/17 02:07:53;;;;;;;97.50;47.08;;;;;;;6.39;100.00;103914.38;5009928;28;20029;-61
2021/12/17 02:10:54;;;;;;;113.93;50.03;;;;;;;6.38;100.00;103918.63;5010104;28;20037;-62
2021/12/17 02:31:41;;;;;;;120.57;52.27;;;;;;;6.40;100.00;103932.59;5009562;28;20419;-61
2021/12/17 02:36:46;;;;;;;121.55;50.22;;;;;;;6.41;100.00;103936.97;5009864;28;20057;-62
2021/12/17 02:47:23;;;;;;;125.50;51.90;;;;;;;6.41;100.00;103939.53;5010007;28;20033;-61
2021/12/17 02:49:49;;;;;;;126.97;53.00;;;;;;;6.42;100.00;103925.88;5009332;28;20061;-61
2021/12/17 02:52:16;;;;;;;132.88;52.33;;;;;;;6.41;100.00;103924.09;5008668;28;20026;-62
2021/12/17 02:54:43;;;;;;;131.27;51.88;;;;;;;6.41;100.00;103920.59;5009296;28;20057;-61
2021/12/17 02:57:10;;;;;;;131.73;50.72;;;;;;;6.41;100.00;103924.09;5009080;28;20080;-61
2021/12/17 02:59:38;;;;;;;143.30;52.85;;;;;;;6.41;100.00;103936.97;5009368;28;20049;-60
2021/12/17 03:02:07;;;;;;;145.93;53.88;;;;;;;6.41;100.00;103923.16;5009435;28;20026;-60
2021/12/17 03:04:35;;;;;;;147.63;54.08;;;;;;;6.41;100.00;103924.09;5009579;28;20080;-61
2021/12/17 03:07:01;;;;;;;142.15;52.53;;;;;;;6.42;100.00;103925.88;5009409;28;20030;-60
2021/12/17 03:09:49;;;;;;;136.23;47.97;;;;;;;6.42;100.00;103927.59;5009354;28;20054;-60
2021/12/17 03:12:20;;;;;;;133.98;48.90;;;;;;;6.41;100.00;103924.09;5002737;28;20033;-61
2021/12/17 03:14:55;;;;;;;145.52;49.85;;;;;;;6.41;100.00;103931.81;5003779;28;20329;-61
2021/12/17 03:17:40;;;;;;;152.65;50.63;;;;;;;6.40;100.00;103932.59;5009139;28;20033;-62
2021/12/17 03:25:34;;;;;;;148.57;50.65;;;;;;;6.41;100.00;103943.78;5009315;28;20044;-60
2021/12/17 03:27:59;;;;;;;152.88;50.92;;;;;;;6.40;100.00;103942.91;5008985;28;20038;-60
2021/12/17 03:30:25;;;;;;;152.77;49.45;;;;;;;6.39;100.00;103935.91;5009170;28;20036;-61
2021/12/17 03:32:50;;;;;;;134.77;46.78;;;;;;;6.40;100.00;103940.31;5009181;28;20034;-62
2021/12/17 03:35:15;;;;;;;138.88;47.05;;;;;;;6.39;100.00;103930.75;5009164;28;20117;-60
2021/12/17 03:37:40;;;;;;;142.15;48.10;;;;;;;6.40;100.00;103936.81;5008923;28;20030;-61
2021/12/17 03:40:06;;;;;;;142.57;48.45;;;;;;;6.40;100.00;103930.00;5008957;28;20080;-62
2021/12/17 03:42:31;;;;;;;148.13;49.10;;;;;;;6.39;100.00;103930.75;5008845;28;20116;-59
2021/12/17 03:44:58;;;;;;;158.90;51.47;;;;;;;6.40;100.00;103931.66;5009203;28;20077;-61
2021/12/17 03:47:23;;;;;;;157.38;52.60;;;;;;;6.39;100.00;103930.75;5008950;28;20065;-61
2021/12/17 03:49:49;;;;;;;155.63;53.00;;;;;;;6.40;100.00;103944.56;5008786;28;20018;-62
2021/12/17 03:52:16;;;;;;;163.18;52.50;;;;;;;6.39;100.00;103940.13;5009169;28;20033;-60
2021/12/17 03:54:42;;;;;;;175.73;53.95;;;;;;;6.39;100.00;103933.31;5011328;28;20034;-61
2021/12/17 03:57:11;;;;;;;166.63;56.25;;;;;;;6.39;100.00;103929.81;5012291;28;20040;-60
2021/12/17 03:59:37;;;;;;;174.70;55.92;;;;;;;6.38;100.00;103928.94;5012777;28;20026;-60
2021/12/17 04:02:02;;;;;;;188.45;57.30;;;;;;;6.34;100.00;103932.88;5012313;28;20306;-61
2021/12/17 04:04:28;;;;;;;194.70;60.13;;;;;;;6.34;100.00;103931.97;5012569;28;20100;-60
2021/12/17 04:06:53;;;;;;;188.32;58.20;;;;;;;6.33;100.00;103931.03;5012135;28;20045;-59
2021/12/17 04:09:21;;;;;;;199.50;60.42;;;;;;;6.34;100.00;103926.81;5012319;28;20254;-62
2021/12/17 04:11:47;;;;;;;198.43;60.03;;;;;;;6.35;100.00;103923.50;5011561;28;20021;-59
2021/12/17 04:14:13;;;;;;;196.70;62.38;;;;;;;6.35;100.00;103918.34;5012304;28;20059;-61
2021/12/17 04:16:39;;;;;;;195.00;59.03;;;;;;;6.35;100.00;103931.22;5012027;28;20029;-62
2021/12/17 04:19:04;;;;;;;202.15;61.40;;;;;;;6.34;100.00;103931.97;5011867;28;20087;-61
2021/12/17 04:21:30;;;;;;;206.23;64.18;;;;;;;6.33;100.00;103925.91;5011729;28;20034;-61
2021/12/17 04:23:56;;;;;;;206.27;61.30;;;;;;;6.34;100.00;103922.56;5012210;28;20108;-61
2021/12/17 04:26:23;;;;;;;206.52;64.18;;;;;;;6.35;100.00;103923.50;5012220;28;20355;-61
2021/12/17 04:28:51;;;;;;;217.70;65.25;;;;;;;6.36;100.00;103927.88;5012236;28;20053;-62
2021/12/17 04:31:19;;;;;;;217.02;64.70;;;;;;;6.35;100.00;103924.38;5011751;28;20030;-61
2021/12/17 04:33:44;;;;;;;218.85;63.97;;;;;;;6.36;100.00;103917.56;5012100;28;20465;-61
2021/12/17 04:36:14;;;;;;;205.13;63.17;;;;;;;6.36;100.00;103930.44;5011816;28;20080;-62
2021/12/17 04:38:39;;;;;;;194.13;60.13;;;;;;;6.37;100.00;103932.25;5011854;28;20413;-61
2021/12/17 04:44:00;;;;;;;196.93;62.07;;;;;;;6.38;100.00;103922.88;5011790;28;20048;-61
2021/12/17 04:57:31;;;;;;;195.85;60.63;;;;;;;6.38;100.00;103918.63;5007554;28;20141;-61
2021/12/17 05:00:02;;;;;;;183.10;56.47;;;;;;;6.39;100.00;103916.94;5002231;28;20144;-61
2021/12/17 05:02:28;;;;;;;;;;;;;;;6.38;100.00;103920.28;5008907;28;20347;-60
2021/12/17 05:04:54;;;;;;;183.10;55.17;;;;;;;6.39;100.00;103925.59;5006437;28;19920;-61
2021/12/17 05:07:22;;;;;;;178.23;53.25;;;;;;;6.39;100.00;103928.16;5002449;28;20411;-61
2021/12/17 05:09:57;;;;;;;182.45;54.85;;;;;;;6.36;100.00;103915.91;5007246;28;20462;-61
2021/12/17 05:20:58;;;;;;;163.65;48.20;;;;;;;6.38;100.00;103921.22;5007478;28;20132;-60
2021/12/17 05:23:30;;;;;;;165.30;48.60;;;;;;;6.39;100.00;103930.75;5008010;28;20663;-61
2021/12/17 05:25:57;;;;;;;153.48;47.58;;;;;;;6.39;100.00;103929.81;5007798;28;20260;-59
2021/12/17 05:28:22;;;;;;;155.73;46.17;;;;;;;6.39;100.00;103934.97;5000741;28;20285;-60
2021/12/17 05:30:48;;;;;;;153.32;44.83;;;;;;;6.39;100.00;103935.91;5007340;28;20053;-61
2021/12/17 05:33:19;;;;;;;152.23;44.55;;;;;;;6.38;100.00;103928.94;5009797;28;20466;-61
2021/12/17 05:35:46;;;;;;;150.10;44.20;;;;;;;6.40;100.00;103937.75;5010959;28;20321;-61
2021/12/17 05:38:12;;;;;;;145.95;42.90;;;;;;;6.40;100.00;103936.81;5010464;28;20105;-61
2021/12/17 05:40:39;;;;;;;147.80;41.92;;;;;;;6.39;100.00;103941.06;5009636;28;20147;-61
2021/12/17 05:43:06;;;;;;;134.20;41.80;;;;;;;6.39;100.00;103938.47;5010341;28;20544;-61
2021/12/17 05:45:47;;;;;;;130.20;39.58;;;;;;;6.39;100.00;103935.91;5010690;28;20076;-61
2021/12/17 05:48:13;;;;;;;118.28;36.17;;;;;;;6.38;100.00;103931.53;5010104;28;20021;-61
2021/12/17 05:50:41;;;;;;;123.97;37.50;;;;;;;6.33;100.00;103925.91;5009963;28;20363;-61
2021/12/17 05:53:07;;;;;;;125.47;37.42;;;;;;;6.33;100.00;103936.19;5010455;28;20108;-60
2021/12/17 05:55:34;;;;;;;120.75;35.67;;;;;;;6.34;100.00;103929.38;5010521;28;20064;-59
2021/12/17 05:57:59;;;;;;;127.38;36.42;;;;;;;6.34;100.00;103931.97;5010003;28;20025;-62
2021/12/17 06:00:25;;;;;;;111.68;34.78;;;;;;;6.32;100.00;103934.38;5009963;28;20061;-60
2021/12/17 06:02:51;;;;;;;121.85;35.50;;;;;;;6.32;100.00;103948.94;5010471;28;20104;-62
2021/12/17 06:05:17;;;;;;;111.07;34.25;;;;;;;6.32;100.00;103948.94;5010239;28;20036;-61
2021/12/17 06:07:42;;;;;;;118.85;34.85;;;;;;;6.33;100.00;103945.63;5010092;28;20386;-59
2021/12/17 06:10:09;;;;;;;108.70;31.80;;;;;;;6.33;100.00;103945.63;5009648;28;20105;-61
2021/12/17 06:12:35;;;;;;;101.68;31.35;;;;;;;6.34;100.00;103944.84;5009980;28;20037;-62
2021/12/17 06:15:03;;;;;;;108.13;32.65;;;;;;;6.32;100.00;103944.69;5009972;28;20112;-62
2021/12/17 06:17:29;;;;;;;105.47;32.45;;;;;;;6.33;100.00;103953.34;5009857;28;20121;-62
2021/12/17 06:19:54;;;;;;;106.22;31.30;;;;;;;6.30;100.00;103956.50;5010027;28;20121;-61
2021/12/17 06:22:19;;;;;;;101.22;32.47;;;;;;;6.32;100.00;103956.66;5009648;28;20068;-61
2021/12/17 06:24:45;;;;;;;98.80;30.75;;;;;;;6.31;100.00;103963.50;5009845;28;20121;-60
2021/12/17 06:27:12;;;;;;;97.20;30.92;;;;;;;6.32;100.00;103964.38;5009960;28;20057;-60
2021/12/17 06:29:38;;;;;;;101.22;29.50;;;;;;;6.31;100.00;103967.72;5009765;28;20121;-61
2021/12/17 06:32:04;;;;;;;92.10;28.58;;;;;;;6.29;100.00;103967.59;5009632;28;20100;-61
2021/12/17 06:34:30;;;;;;;95.32;28.35;;;;;;;6.29;100.00;103962.44;5009739;28;20029;-62
2021/12/17 06:36:56;;;;;;;91.30;27.52;;;;;;;6.29;100.00;103961.50;5009836;28;20049;-61
2021/12/17 06:39:21;;;;;;;90.38;28.73;;;;;;;6.28;100.00;103962.28;5009837;28;20139;-61
2021/12/17 06:41:47;;;;;;;80.97;27.17;;;;;;;6.26;100.00;103959.53;5009034;28;20053;-60
2021/12/17 06:44:15;;;;;;;87.97;27.15;;;;;;;6.27;100.00;103963.03;5009635;28;20037;-60
2021/12/17 06:47:25;;;;;;;91.72;26.77;;;;;;;6.27;100.00;103961.38;5009271;28;20410;-59
2021/12/17 07:07:27;;;;;;;78.57;25.60;;;;;;;6.26;100.00;103961.22;5009774;28;20037;-61
2021/12/17 07:10:04;;;;;;;77.00;24.90;;;;;;;6.27;100.00;103970.75;5006923;28;20033;-60
2021/12/17 07:21:01;;;;;;;71.55;22.80;;;;;;;6.26;100.00;103981.81;5007062;28;20499;-60
2021/12/17 07:23:47;;;;;;;72.38;22.98;;;;;;;6.26;100.00;103968.94;5008105;28;20052;-61
2021/12/17 07:34:43;;;;;;;74.53;23.75;;;;;;;6.27;100.00;103960.44;5010075;28;20124;-61
2021/12/17 07:39:35;;;;;;;72.47;23.42;;;;;;;6.27;100.00;103953.63;5006012;28;20025;-62
2021/12/17 07:42:02;;;;;;;78.68;23.70;;;;;;;6.26;100.00;103946.66;5007429;28;20242;-60
2021/12/17 07:44:28;;;;;;;67.10;23.67;;;;;;;6.28;100.00;103954.56;4988511;28;20026;-60
2021/12/17 07:46:53;;;;;;;71.00;22.88;;;;;;;6.28;100.00;103957.13;4999409;28;20601;-61
2021/12/17 07:49:18;;;;;;;69.68;23.38;;;;;;;6.27;100.00;103947.56;5008130;28;20049;-61
2021/12/17 07:51:43;;;;;;;67.28;23.50;;;;;;;6.28;100.00;103951.97;5004706;28;20096;-61
2021/12/17 07:54:09;;;;;;;68.65;24.85;;;;;;;6.28;100.00;103951.97;4999514;28;20550;-61
2021/12/17 07:56:37;;;;;;;68.25;23.08;;;;;;;6.28;100.00;103952.88;5000040;28;20125;-61
2021/12/17 08:05:27;;;;;;;78.88;26.27;;;;;;;6.30;100.00;103955.59;5005043;28;19915;-61
2021/12/17 08:07:52;;;;;;;79.80;24.83;;;;;;;6.30;100.00;103960.75;5002991;28;20390;-59
2021/12/17 08:10:18;;;;;;;82.03;27.73;;;;;;;6.31;100.00;103954.84;5010634;28;20026;-61
2021/12/17 08:12:43;;;;;;;87.00;28.17;;;;;;;6.32;100.00;103956.66;5010768;28;20036;-61
2021/12/17 08:15:11;;;;;;;74.53;25.13;;;;;;;6.32;100.00;103956.66;5011770;28;20026;-62
2021/12/17 08:26:09;;;;;;;76.93;26.40;;;;;;;6.34;100.00;103968.03;5008195;28;20118;-62
2021/12/17 08:28:51;;;;;;;73.68;25.52;;;;;;;6.35;100.00;103969.88;5010503;28;20386;-61
2021/12/17 08:31:16;;;;;;;84.20;27.80;;;;;;;6.36;100.00;103971.66;5007302;28;20365;-61
2021/12/17 08:33:41;;;;;;;81.65;27.70;;;;;;;6.36;100.00;103977.75;5010488;28;20021;-61
2021/12/17 08:36:07;;;;;;;80.00;27.35;;;;;;;6.37;100.00;103983.78;5011664;28;20096;-61
2021/12/17 08:38:32;;;;;;;79.53;27.05;;;;;;;6.37;100.00;103986.34;5010487;28;20257;-61
2021/12/17 08:40:59;;;;;;;78.05;27.60;;;;;;;6.38;100.00;103989.84;5007645;28;20021;-61
2021/12/17 08:43:25;;;;;;;81.70;27.52;;;;;;;6.39;100.00;103981.34;5010173;28;20505;-61
2021/12/17 08:45:50;;;;;;;79.35;27.60;;;;;;;6.39;100.00;103992.56;5008760;28;20025;-62
2021/12/17 08:48:16;;;;;;;74.32;25.88;;;;;;;6.40;100.00;103983.19;5010019;28;20030;-62
2021/12/17 08:50:41;;;;;;;76.38;27.90;;;;;;;6.41;100.00;103979.84;5010785;28;20021;-62
2021/12/17 08:53:06;;;;;;;83.03;28.80;;;;;;;6.41;100.00;103978.19;5010538;28;20029;-61
2021/12/17 08:55:32;;;;;;;79.75;26.52;;;;;;;6.43;100.00;103976.69;5009439;28;20108;-61
2021/12/17 08:57:57;;;;;;;80.10;25.83;;;;;;;6.43;100.00;103974.09;5010646;28;20160;-60
2021/12/17 09:00:22;;;;;;;78.78;26.00;;;;;;;6.45;100.00;103972.59;5010937;28;20041;-61
2021/12/17 09:02:48;;;;;;;82.57;27.80;;;;;;;6.46;100.00;103974.41;5010418;28;20482;-60
2021/12/17 09:05:13;;;;;;;71.43;26.17;;;;;;;6.48;100.00;103971.97;5010038;28;20434;-61
2021/12/17 09:07:39;;;;;;;74.70;26.88;;;;;;;6.48;100.00;103970.31;5010613;28;20037;-61
2021/12/17 09:10:06;;;;;;;84.43;27.80;;;;;;;6.49;100.00;103971.22;5010400;28;20018;-61
2021/12/17 09:12:32;;;;;;;82.97;26.92;;;;;;;6.51;100.00;103981.69;5011087;28;20359;-61
2021/12/17 09:14:57;;;;;;;81.38;27.13;;;;;;;6.51;100.00;103987.75;5010839;28;20568;-61
2021/12/17 09:17:24;;;;;;;85.70;29.45;;;;;;;6.53;100.00;103990.47;5010088;28;20025;-60
2021/12/17 09:19:50;;;;;;;74.85;28.52;;;;;;;6.53;100.00;104003.38;5009040;28;20038;-61
2021/12/17 09:22:16;;;;;;;85.95;30.65;;;;;;;6.55;100.00;104004.44;5006982;28;20512;-60
2021/12/17 09:24:41;;;;;;;78.78;29.60;;;;;;;6.55;100.00;104012.16;5009324;28;20018;-59
2021/12/17 09:27:06;;;;;;;83.05;30.05;;;;;;;6.57;100.00;104015.78;5009070;28;20080;-61
2021/12/17 09:29:32;;;;;;;76.38;27.90;;;;;;;6.57;100.00;104013.19;5010166;28;20041;-61
2021/12/17 09:31:57;;;;;;;75.32;28.70;;;;;;;6.58;100.00;104010.78;5010112;28;20140;-61
2021/12/17 09:34:22;;;;;;;86.35;30.90;;;;;;;6.58;100.00;104021.06;5008553;28;20072;-60
2021/12/17 09:36:48;;;;;;;79.95;29.80;;;;;;;6.59;100.00;104022.91;5009259;28;20386;-61
2021/12/17 09:39:14;;;;;;;82.40;28.30;;;;;;;6.60;100.00;104023.84;5008749;28;20034;-62
2021/12/17 09:41:47;;;;;;;73.72;26.73;;;;;;;6.59;100.00;104022.00;5009403;28;20052;-61
2021/12/17 09:44:15;;;;;;;78.45;28.55;;;;;;;6.60;100.00;104027.31;5008764;28;20517;-61
2021/12/17 09:46:43;;;;;;;75.18;28.45;;;;;;;6.62;100.00;104021.41;5009035;28;20374;-61
2021/12/17 09:49:11;;;;;;;66.28;25.98;;;;;;;6.63;100.00;104020.63;5006943;28;20030;-61
2021/12/17 09:51:37;;;;;;;71.45;28.58;;;;;;;6.64;100.00;104033.66;5008152;28;20366;-60
2021/12/17 09:54:03;;;;;;;68.70;26.38;;;;;;;6.65;100.00;104045.81;5009500;28;20029;-61
2021/12/17 09:56:29;;;;;;;66.38;25.52;;;;;;;6.65;100.00;104032.00;5009300;28;20597;-61
2021/12/17 09:58:55;;;;;;;68.13;25.88;;;;;;;6.68;100.00;104038.38;5008669;28;20033;-60
2021/12/17 10:01:20;;;;;;;60.15;25.23;;;;;;;6.68;100.00;104032.31;5007726;28;20018;-61
2021/12/17 10:03:46;;;;;;;60.70;23.67;;;;;;;6.66;100.00;104039.91;5006418;28;20030;-61
2021/12/17 10:06:23;;;;;;;60.75;23.85;;;;;;;6.67;100.00;104040.81;5008492;28;20393;-61
2021/12/17 10:08:49;;;;;;;62.10;23.98;;;;;;;6.68;100.00;104038.38;5005901;28;20026;-61
2021/12/17 10:11:16;;;;;;;62.42;23.95;;;;;;;6.70;100.00;104044.59;5009492;28;20528;-61
2021/12/17 10:13:42;;;;;;;58.60;23.10;;;;;;;6.71;100.00;104046.41;5007700;28;20026;-61
2021/12/17 10:16:10;;;;;;;56.08;22.70;;;;;;;6.73;100.00;104044.91;5009337;28;20033;-60
2021/12/17 10:18:46;;;;;;;58.15;22.50;;;;;;;6.73;100.00;104042.31;5007506;28;20120;-60
2021/12/17 10:21:19;;;;;;;47.47;20.40;;;;;;;6.75;100.00;104047.63;5008606;28;20124;-61
2021/12/17 10:23:45;;;;;;;54.45;22.45;;;;;;;6.75;100.00;104039.91;5009994;28;20883;-61
2021/12/17 10:26:19;;;;;;;49.20;19.80;;;;;;;6.77;100.00;104053.84;5006668;28;20595;-60
2021/12/17 10:28:55;;;;;;;60.45;21.98;;;;;;;6.77;100.00;104047.78;5009024;28;20207;-62
2021/12/17 10:31:21;;;;;;;53.40;20.77;;;;;;;6.79;100.00;104051.41;5009172;28;20068;-61
2021/12/17 10:33:51;;;;;;;51.95;21.75;;;;;;;6.77;100.00;104055.50;5009229;28;20057;-61
2021/12/17 10:36:16;;;;;;;50.40;20.77;;;;;;;6.78;100.00;104050.50;5009633;28;20026;-61
2021/12/17 10:38:45;;;;;;;56.05;23.02;;;;;;;6.79;100.00;104041.09;5007302;28;20032;-61
2021/12/17 10:41:14;;;;;;;49.08;20.95;;;;;;;6.80;100.00;104043.84;5007589;28;20037;-61
2021/12/17 10:43:48;;;;;;;53.88;22.33;;;;;;;6.82;100.00;104041.41;5009327;28;20538;-62
2021/12/17 10:46:32;;;;;;;52.67;20.23;;;;;;;6.83;100.00;104048.41;5009250;28;20076;-61
2021/12/17 10:54:17;;;;;;;61.60;22.55;;;;;;;6.87;100.00;104052.19;5009289;28;20069;-61
2021/12/17 10:56:44;;;;;;;56.08;21.27;;;;;;;6.88;100.00;104044.59;5007219;28;20108;-61
2021/12/17 10:59:13;;;;;;;52.25;22.05;;;;;;;6.90;100.00;104057.66;5008635;28;20026;-61
2021/12/17 11:01:45;;;;;;;55.55;21.05;;;;;;;6.91;100.00;104051.72;5009522;28;20502;-61
2021/12/17 11:04:21;;;;;;;51.30;20.60;;;;;;;6.92;100.00;104049.31;5011612;28;20417;-61
2021/12/17 11:07:03;;;;;;;48.67;20.63;;;;;;;6.93;100.00;104058.88;5013254;28;20026;-61
2021/12/17 11:09:39;;;;;;;50.22;20.90;;;;;;;6.93;100.00;104047.63;5012180;28;20048;-61
2021/12/17 11:12:12;;;;;;;52.80;21.70;;;;;;;6.93;100.00;104053.69;5011658;28;20378;-61
2021/12/17 11:14:38;;;;;;;49.63;21.65;;;;;;;6.94;100.00;104050.34;5013348;28;20035;-59
2021/12/17 11:17:03;;;;;;;47.80;20.65;;;;;;;6.95;100.00;104044.47;5012657;28;20045;-61
2021/12/17 11:19:30;;;;;;;54.97;20.45;;;;;;;6.95;100.00;104041.88;5012765;28;20030;-62
2021/12/17 11:21:55;;;;;;;52.92;21.15;;;;;;;6.96;100.00;104045.38;5012675;28;20026;-61
2021/12/17 11:24:22;;;;;;;50.25;20.20;;;;;;;6.97;100.00;104053.25;5024968;28;20041;-62
2021/12/17 11:26:48;;;;;;;47.38;20.40;;;;;;;6.98;100.00;104043.81;5012195;28;20025;-61
2021/12/17 11:29:16;;;;;;;51.35;20.30;;;;;;;7.00;100.00;104036.28;5011807;28;20552;-60
2021/12/17 11:31:41;;;;;;;46.95;19.92;;;;;;;6.98;100.00;104033.50;5011797;28;20104;-61
2021/12/17 11:34:07;;;;;;;48.50;20.65;;;;;;;6.99;100.00;104034.44;5012472;28;20097;-61
2021/12/17 11:36:32;;;;;;;48.28;19.80;;;;;;;7.00;100.00;104028.53;5012878;28;20437;-60
2021/12/17 11:39:24;;;;;;;45.35;20.25;;;;;;;7.01;100.00;104022.59;5012454;28;20026;-61
2021/12/17 11:42:29;;;;;;;48.97;20.90;;;;;;;7.01;100.00;104017.44;5011413;28;20128;-61
2021/12/17 11:47:46;;;;;;;39.10;20.25;;;;;;;7.00;100.00;104015.66;5011324;28;20465;-61
2021/12/17 11:50:14;;;;;;;39.22;20.52;;;;;;;7.01;100.00;104012.28;5011726;28;20466;-61
2021/12/17 11:52:48;;;;;;;42.80;20.42;;;;;;;7.01;100.00;104007.13;5012002;28;20022;-61
2021/12/17 11:55:23;;;;;;;42.47;20.75;;;;;;;7.02;100.00;104007.28;5011061;28;20389;-59
2021/12/17 11:57:49;;;;;;;38.47;19.85;;;;;;;7.02;100.00;104007.28;5009267;28;20017;-61
2021/12/17 12:00:17;;;;;;;38.00;19.65;;;;;;;7.04;100.00;104012.59;5005856;28;20085;-61
2021/12/17 12:02:50;;;;;;;44.50;21.35;;;;;;;7.03;100.00;104000.47;5003139;28;20030;-60
2021/12/17 12:05:37;;;;;;;43.90;18.85;;;;;;;7.04;100.00;103997.09;5005543;28;20026;-61
2021/12/17 12:08:23;;;;;;;42.60;19.90;;;;;;;7.05;100.00;104009.25;5008061;28;20104;-61
2021/12/17 12:11:09;;;;;;;41.17;19.52;;;;;;;7.07;100.00;104012.88;5010842;28;20017;-61
2021/12/17 12:20:40;;;;;;;36.53;19.58;;;;;;;7.06;100.00;104017.16;5010320;28;20449;-62
2021/12/17 12:23:23;;;;;;;32.13;20.48;;;;;;;7.06;100.00;104021.38;5010251;28;20474;-61
2021/12/17 12:26:11;;;;;;;33.72;18.55;;;;;;;7.06;100.00;104021.38;5022237;28;20025;-61
2021/12/17 12:28:53;;;;;;;33.40;19.02;;;;;;;7.04;100.00;104015.16;5009522;28;20333;-61
2021/12/17 12:31:30;;;;;;;29.95;18.08;;;;;;;7.05;100.00;104009.25;5009327;28;20529;-61
2021/12/17 12:34:06;;;;;;;29.33;18.55;;;;;;;7.06;100.00;104008.50;5009712;28;20025;-61
2021/12/17 12:36:56;;;;;;;34.85;20.92;;;;;;;7.08;100.00;104005.31;5011146;28;20095;-62
2021/12/17 12:39:30;;;;;;;48.72;26.50;;;;;;;7.06;100.00;104001.66;5010109;28;20526;-61
2021/12/17 12:41:55;;;;;;;57.42;32.67;;;;;;;7.06;100.00;104005.91;5009058;28;20038;-60
2021/12/17 12:44:49;;;;;;;65.53;35.17;;;;;;;7.07;100.00;104002.56;5010621;28;20124;-61
2021/12/17 12:47:34;;;;;;;66.30;35.47;;;;;;;7.08;100.00;104001.81;5008513;28;20041;-61
2021/12/17 12:50:10;;;;;;;61.90;33.63;;;;;;;7.06;100.00;104006.81;5011018;28;20024;-61
2021/12/17 12:52:39;;;;;;;60.15;35.25;;;;;;;7.07;100.00;104005.13;5009459;28;20032;-59
2021/12/17 12:55:06;;;;;;;56.90;32.35;;;;;;;7.04;100.00;103999.69;5010760;28;20072;-61
2021/12/17 12:57:34;;;;;;;50.83;29.52;;;;;;;7.04;100.00;103998.03;5010858;28;20437;-61
2021/12/17 13:00:20;;;;;;;39.47;27.08;;;;;;;7.03;100.00;103998.81;5010067;28;20068;-61
2021/12/17 13:02:49;;;;;;;36.30;21.33;;;;;;;7.02;100.00;103998.63;5008448;28;20028;-62
2021/12/17 13:05:16;;;;;;;27.23;18.10;;;;;;;7.01;100.00;104001.97;5009678;28;20088;-61
2021/12/17 13:07:52;;;;;;;28.33;16.92;;;;;;;7.01;100.00;103996.81;5008466;28;20053;-60
2021/12/17 13:10:30;;;;;;;33.05;17.52;;;;;;;7.00;100.00;104001.06;5010001;28;20018;-61
2021/12/17 13:13:31;;;;;;;20.27;14.48;;;;;;;6.99;100.00;104013.81;5009309;28;20033;-62
2021/12/17 13:24:15;;;;;;;;;;;;;;;6.95;100.00;103998.03;5009488;28;20026;-62
2021/12/17 13:26:42;;;;;;;14.77;10.45;;;;;;;6.95;100.00;103998.03;5008171;28;19918;-61
2021/12/17 13:29:21;;;;;;;16.35;10.68;;;;;;;6.94;100.00;103996.22;5010014;28;20097;-61
2021/12/17 13:31:52;;;;;;;14.40;10.45;;;;;;;6.93;100.00;103994.41;5008695;28;20030;-61
2021/12/17 13:34:23;;;;;;;14.07;11.35;;;;;;;6.86;100.00;103997.13;5008280;28;20018;-62
2021/12/17 13:36:53;;;;;;;15.18;10.90;;;;;;;6.85;100.00;104000.50;5010020;28;20087;-60
2021/12/17 13:39:21;;;;;;;11.80;9.93;;;;;;;6.84;100.00;103988.34;5009077;28;20029;-60
2021/12/17 13:41:47;;;;;;;8.75;7.85;;;;;;;6.83;100.00;103991.69;5008225;28;20100;-61
2021/12/17 13:44:33;;;;;;;10.10;7.60;;;;;;;6.83;100.00;103986.53;5009423;28;20021;-61
2021/12/17 13:47:17;;;;;;;8.68;6.53;;;;;;;6.80;100.00;103988.81;5009937;28;20422;-61
2021/12/17 13:49:47;;;;;;;7.32;5.65;;;;;;;6.78;100.00;103988.63;5008318;28;20033;-61
2021/12/17 13:52:15;;;;;;;6.85;5.60;;;;;;;6.77;100.00;103993.66;5009944;28;20021;-60
2021/12/17 13:54:43;;;;;;;6.43;5.82;;;;;;;6.77;100.00;103997.13;5008842;28;20143;-60
2021/12/17 13:57:14;;;;;;;9.38;5.63;;;;;;;6.76;100.00;104004.72;5009092;28;20025;-61
2021/12/17 13:59:39;;;;;;;7.03;5.17;;;;;;;6.77;100.00;104004.88;5009866;28;20034;-62
2021/12/17 14:02:14;;;;;;;6.45;5.40;;;;;;;6.76;100.00;104005.66;5009761;28;20044;-60
2021/12/17 14:04:42;;;;;;;7.30;5.32;;;;;;;6.76;100.00;103997.00;5001738;28;20030;-61
2021/12/17 14:07:09;;;;;;;6.05;5.20;;;;;;;6.75;100.00;103992.59;5009143;28;20396;-61
2021/12/17 14:09:36;;;;;;;6.63;5.55;;;;;;;6.76;100.00;103999.56;5009265;28;20034;-62
2021/12/17 14:12:12;;;;;;;8.60;6.07;;;;;;;6.75;100.00;103997.72;5009172;28;20092;-62
2021/12/17 14:14:37;;;;;;;6.63;5.93;;;;;;;6.75;100.00;103997.72;5007626;28;20602;-61
2021/12/17 14:17:05;;;;;;;7.28;6.22;;;;;;;6.71;100.00;103999.13;5008845;28;20501;-62
2021/12/17 14:19:50;;;;;;;7.95;7.10;;;;;;;6.70;100.00;104002.44;5006873;28;20022;-59
2021/12/17 14:22:27;;;;;;;7.88;7.15;;;;;;;6.67;100.00;104000.50;5008650;28;20029;-60
2021/12/17 14:24:53;;;;;;;8.40;7.43;;;;;;;6.66;100.00;104002.91;5008537;28;20028;-62
2021/12/17 14:27:18;;;;;;;8.18;7.30;;;;;;;6.65;100.00;104006.25;5009053;28;20025;-62
2021/12/17 14:29:44;;;;;;;9.10;7.22;;;;;;;6.65;100.00;104008.81;5008782;28;20464;-61
2021/12/17 14:32:17;;;;;;;9.07;7.55;;;;;;;6.59;100.00;104001.38;5008605;28;20089;-62
2021/12/17 14:34:42;;;;;;;7.93;6.50;;;;;;;6.57;100.00;104000.31;5009212;28;20018;-62